Time;durP1;ratioP1;P1;durP2;ratioP2;P2;SDS_P1;SDS_P2;PMS_P1;PMS_P2;Temp;Humidity;BMP_temperature;BMP_pressure;BME280_temperature;BME280_humidity;BME280_pressure;Samples;Min_cycle;Max_cycle;Signal;HPM_P1;HPM_P2
2020/12/21 00:00:21;;;;;;;7.20;2.92;;;26.00;86.90;;;;;;5065518;28;20067;-94
2020/12/21 00:02:56;;;;;;;3.75;2.03;;;25.90;86.80;;;;;;5066540;28;20328;-91
2020/12/21 00:05:23;;;;;;;5.93;2.20;;;25.90;87.00;;;;;;5065319;28;20087;-93
2020/12/21 00:08:07;;;;;;;3.30;1.95;;;25.90;87.20;;;;;;5066550;28;20025;-96
2020/12/21 00:11:01;;;;;;;6.30;2.90;;;25.90;86.90;;;;;;5065844;28;20024;-94
2020/12/21 00:13:42;;;;;;;6.25;3.88;;;25.80;87.20;;;;;;5063456;28;20071;-95
2020/12/21 00:16:14;;;;;;;10.73;4.00;;;25.80;87.60;;;;;;5068019;28;20029;-95
2020/12/21 00:18:44;;;;;;;6.57;4.90;;;25.80;87.70;;;;;;5063574;28;20028;-90
2020/12/21 00:21:13;;;;;;;6.40;4.60;;;25.80;87.90;;;;;;5063506;28;20033;-90
2020/12/21 00:23:44;;;;;;;6.85;4.07;;;25.80;87.30;;;;;;5065504;28;20037;-93
2020/12/21 00:26:11;;;;;;;8.70;3.70;;;25.80;87.80;;;;;;5048895;28;20031;-89
2020/12/21 00:28:38;;;;;;;7.15;3.40;;;25.80;88.10;;;;;;5063626;28;20020;-90
2020/12/21 00:31:04;;;;;;;8.10;3.38;;;25.70;88.10;;;;;;5062416;28;20041;-89
2020/12/21 00:33:32;;;;;;;4.47;2.53;;;25.60;88.00;;;;;;5063312;28;20225;-90
2020/12/21 00:36:02;;;;;;;6.15;2.05;;;25.60;88.10;;;;;;5046689;28;20044;-90
2020/12/21 00:38:28;;;;;;;5.43;2.15;;;25.50;88.50;;;;;;5062382;28;20017;-89
2020/12/21 00:40:55;;;;;;;3.78;2.03;;;25.40;88.70;;;;;;5062835;28;20053;-90
2020/12/21 00:43:22;;;;;;;6.95;2.10;;;25.40;88.90;;;;;;5063153;28;20245;-89
2020/12/21 00:45:49;;;;;;;3.63;1.98;;;25.40;89.20;;;;;;5062708;28;20073;-89
2020/12/21 00:48:23;;;;;;;3.35;2.17;;;25.40;88.30;;;;;;5061274;28;20036;-89
2020/12/21 00:50:51;;;;;;;6.28;2.65;;;25.40;88.50;;;;;;5047768;28;20032;-88
2020/12/21 00:53:36;;;;;;;5.38;2.42;;;25.40;88.60;;;;;;5047133;28;20020;-91
2020/12/21 00:56:06;;;;;;;5.18;1.73;;;25.40;88.40;;;;;;5063873;28;20035;-89
2020/12/21 00:58:35;;;;;;;5.15;2.00;;;25.30;88.30;;;;;;5065990;28;20062;-89
2020/12/21 01:01:07;;;;;;;2.80;1.40;;;25.30;88.20;;;;;;5065276;28;20028;-93
2020/12/21 01:03:44;;;;;;;2.13;1.10;;;25.30;88.00;;;;;;5065117;28;20017;-89
2020/12/21 01:06:20;;;;;;;4.50;1.52;;;25.20;88.00;;;;;;5065596;28;20278;-94
2020/12/21 01:08:50;;;;;;;4.57;1.60;;;25.10;88.10;;;;;;5064342;28;20074;-88
2020/12/21 01:11:17;;;;;;;2.70;1.75;;;25.10;88.30;;;;;;5070102;28;20203;-90
2020/12/21 01:13:48;;;;;;;5.13;2.53;;;25.10;88.70;;;;;;5065958;28;20261;-89
2020/12/21 01:16:25;;;;;;;3.75;1.90;;;25.00;88.70;;;;;;5065125;28;20033;-90
2020/12/21 01:18:53;;;;;;;4.75;2.78;;;25.00;89.00;;;;;;5068246;28;20020;-89
2020/12/21 01:21:48;;;;;;;4.88;3.63;;;24.90;88.40;;;;;;5070181;28;20035;-88
2020/12/21 01:24:18;;;;;;;6.45;2.70;;;24.90;88.80;;;;;;5056052;28;20024;-89
2020/12/21 01:26:50;;;;;;;4.97;2.85;;;24.90;88.50;;;;;;5049146;28;20166;-88
2020/12/21 01:29:17;;;;;;;3.92;2.53;;;24.80;88.90;;;;;;5068255;28;20047;-88
2020/12/21 01:31:43;;;;;;;4.65;2.55;;;24.80;88.50;;;;;;5070243;28;20036;-88
2020/12/21 01:34:22;;;;;;;;;;;;;;;;;;;;;
2020/12/21 01:36:50;;;;;;;6.15;3.67;;;24.70;88.30;;;;;;5070824;28;20064;-88
2020/12/21 01:39:48;;;;;;;12.70;10.05;;;24.70;88.10;;;;;;5072317;28;20044;-87
2020/12/21 01:42:18;;;;;;;28.17;17.88;;;24.70;87.80;;;;;;5072387;28;20048;-88
2020/12/21 01:44:47;;;;;;;42.60;29.33;;;24.70;87.60;;;;;;5066027;28;20028;-90
2020/12/21 01:47:37;;;;;;;18.67;13.18;;;24.70;87.50;;;;;;5068536;28;20100;-90
2020/12/21 01:50:42;;;;;;;12.40;9.00;;;24.80;87.70;;;;;;5050780;28;20330;-91
2020/12/21 01:53:11;;;;;;;16.50;10.32;;;24.70;87.70;;;;;;5073770;28;20337;-91
2020/12/21 01:55:49;;;;;;;18.33;9.52;;;24.70;88.00;;;;;;5067905;28;20020;-88
2020/12/21 01:58:18;;;;;;;12.23;6.95;;;24.60;87.50;;;;;;5036699;28;20060;-90
2020/12/21 02:00:53;;;;;;;8.18;4.10;;;24.60;87.70;;;;;;5055423;28;20040;-89
2020/12/21 02:03:23;;;;;;;6.70;3.72;;;24.60;86.90;;;;;;5072751;28;20087;-88
2020/12/21 02:05:52;;;;;;;5.95;3.17;;;24.60;86.90;;;;;;5074179;28;20088;-90
2020/12/21 02:08:19;;;;;;;4.93;2.33;;;24.50;86.70;;;;;;5069650;28;20033;-91
2020/12/21 02:10:59;;;;;;;2.67;1.95;;;24.50;86.80;;;;;;5074199;28;20024;-90
2020/12/21 02:13:29;;;;;;;5.97;2.20;;;24.60;87.00;;;;;;5076223;28;20053;-89
2020/12/21 02:15:58;;;;;;;6.57;2.50;;;24.50;87.00;;;;;;5058850;28;20063;-90
2020/12/21 02:18:25;;;;;;;7.25;2.30;;;24.50;87.20;;;;;;5074152;28;20021;-90
2020/12/21 02:21:00;;;;;;;6.38;2.40;;;24.50;86.90;;;;;;5079438;28;20021;-91
2020/12/21 02:23:50;;;;;;;5.95;2.70;;;24.50;87.40;;;;;;5079249;28;20029;-90
2020/12/21 02:26:43;;;;;;;4.53;2.80;;;24.40;87.50;;;;;;5079379;28;20027;-94
2020/12/21 02:29:11;;;;;;;8.68;3.30;;;24.50;87.00;;;;;;5078705;28;20029;-92
2020/12/21 02:32:01;;;;;;;5.93;3.00;;;24.40;86.40;;;;;;5075347;28;20028;-90
2020/12/21 02:34:44;;;;;;;9.43;3.22;;;24.30;86.30;;;;;;5075495;28;20028;-90
2020/12/21 02:37:11;;;;;;;6.32;2.90;;;24.30;86.00;;;;;;5050945;28;20032;-90
2020/12/21 02:39:43;;;;;;;7.07;2.67;;;24.40;85.40;;;;;;5068527;28;20017;-93
2020/12/21 02:42:21;;;;;;;4.95;2.15;;;24.30;85.70;;;;;;5068388;28;20332;-90
2020/12/21 02:44:51;;;;;;;4.63;2.03;;;24.30;85.30;;;;;;5066451;28;20024;-90
2020/12/21 02:47:18;;;;;;;2.90;1.63;;;24.30;85.80;;;;;;5066263;28;20031;-90
2020/12/21 02:49:48;;;;;;;2.30;1.45;;;24.30;85.00;;;;;;5068510;28;20203;-91
2020/12/21 02:52:15;;;;;;;4.35;1.20;;;24.30;85.10;;;;;;5070271;28;20012;-90
2020/12/21 02:54:46;;;;;;;1.80;1.00;;;24.30;85.60;;;;;;5052846;28;20091;-91
2020/12/21 02:57:13;;;;;;;1.48;1.05;;;24.30;85.30;;;;;;5069548;28;20028;-91
2020/12/21 02:59:40;;;;;;;1.52;0.93;;;24.30;85.10;;;;;;5069149;28;20116;-91
2020/12/21 03:02:09;;;;;;;2.80;0.70;;;24.30;84.40;;;;;;5087573;28;20036;-91
2020/12/21 03:04:36;;;;;;;1.63;1.10;;;24.30;84.60;;;;;;5071750;28;20051;-91
2020/12/21 03:07:13;;;;;;;2.17;0.88;;;24.20;84.50;;;;;;5073239;28;20034;-91
2020/12/21 03:09:40;;;;;;;3.30;1.20;;;24.30;84.80;;;;;;5055101;28;20043;-87
2020/12/21 03:25:32;;;;;;;2.80;1.15;;;24.10;83.70;;;;;;5220863;23;20056;-91
2020/12/21 03:31:53;;;;;;;5.65;2.38;;;24.10;82.50;;;;;;5254733;22;20067;-90
2020/12/21 03:34:28;;;;;;;6.00;3.13;;;24.10;82.90;;;;;;5070997;28;20036;-90
2020/12/21 03:36:57;;;;;;;5.88;4.28;;;24.10;82.60;;;;;;5073943;28;20044;-90
2020/12/21 03:39:36;;;;;;;;;;;;;;;;;;;;;
2020/12/21 04:06:15;;;;;;;2.85;0.80;;;23.90;82.40;;;;;;4982417;28;20108;-93
2020/12/21 04:08:44;;;;;;;4.55;0.95;;;23.90;82.10;;;;;;5008564;28;20014;-93
2020/12/21 04:11:17;;;;;;;1.75;0.80;;;23.90;81.80;;;;;;5008652;28;20056;-94
2020/12/21 04:13:49;;;;;;;1.20;0.90;;;23.90;82.10;;;;;;5007665;28;20030;-94
2020/12/21 04:16:15;;;;;;;1.70;0.70;;;23.90;81.90;;;;;;5009220;28;20033;-92
2020/12/21 04:18:48;;;;;;;2.95;0.93;;;23.90;82.00;;;;;;5008899;28;20021;-90
2020/12/21 04:21:47;;;;;;;1.13;0.90;;;23.90;81.80;;;;;;4992471;28;20026;-92
2020/12/21 04:27:12;;;;;;;1.23;0.80;;;23.90;82.00;;;;;;5015484;28;20326;-92
2020/12/21 04:29:39;;;;;;;1.48;0.82;;;23.90;81.80;;;;;;5023437;28;20025;-92
2020/12/21 04:32:15;;;;;;;1.88;0.90;;;24.00;81.40;;;;;;4992948;28;20017;-93
2020/12/21 04:34:42;;;;;;;2.10;1.10;;;23.90;81.30;;;;;;4993885;28;20302;-93
2020/12/21 04:37:27;;;;;;;2.30;1.00;;;23.90;81.30;;;;;;5008778;28;20036;-92
2020/12/21 04:40:01;;;;;;;1.02;0.70;;;23.90;81.40;;;;;;4993556;28;20033;-92
2020/12/21 04:42:28;;;;;;;2.50;0.90;;;23.90;81.30;;;;;;4992853;28;20025;-92
2020/12/21 04:44:58;;;;;;;9.88;1.42;;;23.80;81.40;;;;;;5005476;28;20018;-93
2020/12/21 04:47:38;;;;;;;1.90;1.00;;;23.80;81.50;;;;;;4990181;28;20058;-93
2020/12/21 04:50:10;;;;;;;2.13;0.90;;;23.80;81.90;;;;;;4990421;28;20018;-93
2020/12/21 04:52:51;;;;;;;1.45;0.68;;;23.70;81.70;;;;;;4989230;28;20030;-94
2020/12/21 04:55:23;;;;;;;1.48;0.90;;;23.70;81.10;;;;;;4988613;28;20022;-93
2020/12/21 04:58:01;;;;;;;3.08;1.20;;;23.70;81.60;;;;;;4988403;28;20026;-93
2020/12/21 05:00:29;;;;;;;1.15;0.90;;;23.60;81.90;;;;;;4999414;28;20042;-95
2020/12/21 05:03:04;;;;;;;3.08;1.38;;;23.60;81.80;;;;;;5023532;28;20034;-95
2020/12/21 05:05:41;;;;;;;1.17;0.90;;;23.70;82.10;;;;;;5024040;28;20022;-94
2020/12/21 05:08:25;;;;;;;;;;;;;;;;;;;;;
2020/12/21 05:11:01;;;;;;;1.60;0.85;;;23.60;82.20;;;;;;5025361;28;20037;-92
2020/12/21 05:13:29;;;;;;;1.02;0.80;;;23.60;82.30;;;;;;5023995;28;20025;-93
2020/12/21 05:16:04;;;;;;;2.00;1.10;;;23.60;82.20;;;;;;5023795;28;20018;-93
2020/12/21 05:18:35;;;;;;;0.88;0.88;;;23.50;82.10;;;;;;5026809;28;20021;-93
2020/12/21 05:21:14;;;;;;;2.67;0.73;;;23.60;82.10;;;;;;5024187;28;20093;-93
2020/12/21 05:23:59;;;;;;;1.80;0.90;;;23.50;81.70;;;;;;5024385;28;20045;-93
2020/12/21 05:26:30;;;;;;;1.00;0.90;;;23.50;81.80;;;;;;5024393;28;20227;-92
2020/12/21 05:29:00;;;;;;;1.17;1.00;;;23.60;82.30;;;;;;5024465;28;20255;-93
2020/12/21 05:31:28;;;;;;;1.85;0.90;;;23.50;82.30;;;;;;5024106;28;20344;-92
2020/12/21 05:33:55;;;;;;;2.00;0.73;;;23.50;82.10;;;;;;5024244;28;20254;-92
2020/12/21 05:36:23;;;;;;;2.30;0.90;;;23.50;82.50;;;;;;5024167;28;20022;-92
2020/12/21 05:39:02;;;;;;;2.63;1.15;;;23.40;82.60;;;;;;5024309;28;20129;-91
2020/12/21 05:41:35;;;;;;;2.25;0.90;;;23.40;82.00;;;;;;5023696;28;20029;-91
2020/12/21 05:44:09;;;;;;;0.90;0.70;;;23.40;82.20;;;;;;5024328;28;20017;-92
2020/12/21 05:46:41;;;;;;;1.38;1.10;;;23.40;82.30;;;;;;5023894;28;20025;-92
2020/12/21 05:49:11;;;;;;;0.88;0.80;;;23.40;81.20;;;;;;5024146;28;20022;-93
2020/12/21 05:52:03;;;;;;;2.72;0.95;;;23.50;81.50;;;;;;5024247;28;20322;-91
2020/12/21 05:54:30;;;;;;;1.65;0.70;;;23.50;81.10;;;;;;5023443;28;20036;-91
2020/12/21 05:56:57;;;;;;;4.28;1.25;;;23.50;80.90;;;;;;5024053;28;20064;-91
2020/12/21 05:59:25;;;;;;;1.88;1.00;;;23.50;81.20;;;;;;5023751;28;20022;-91
2020/12/21 06:02:00;;;;;;;1.25;0.77;;;23.50;80.70;;;;;;5023752;28;20080;-91
2020/12/21 06:04:39;;;;;;;1.88;0.80;;;23.40;81.00;;;;;;5024052;28;20030;-90
2020/12/21 06:07:14;;;;;;;1.42;0.75;;;23.50;80.50;;;;;;5024317;28;20104;-91
2020/12/21 06:09:59;;;;;;;1.45;0.80;;;23.50;80.30;;;;;;5024016;28;20013;-91
2020/12/21 06:12:27;;;;;;;1.02;0.50;;;23.50;80.10;;;;;;5024138;28;20026;-92
2020/12/21 06:15:36;;;;;;;1.10;0.70;;;23.50;80.00;;;;;;5027024;28;20018;-92
2020/12/21 06:18:10;;;;;;;0.93;0.85;;;23.50;80.40;;;;;;5027633;28;20033;-91
2020/12/21 06:20:45;;;;;;;1.08;0.75;;;23.50;80.70;;;;;;5027503;28;20017;-91
2020/12/21 06:23:41;;;;;;;1.83;0.70;;;23.40;81.40;;;;;;5027404;28;20105;-92
2020/12/21 06:26:15;;;;;;;2.33;1.00;;;23.40;81.70;;;;;;5020508;28;20057;-91
2020/12/21 06:28:43;;;;;;;2.55;0.93;;;23.40;81.50;;;;;;5027607;28;20014;-90
2020/12/21 06:31:22;;;;;;;2.38;0.98;;;23.40;81.90;;;;;;5026837;28;20040;-91
2020/12/21 06:33:49;;;;;;;3.38;0.80;;;23.30;81.60;;;;;;5027412;28;20018;-90
2020/12/21 06:36:16;;;;;;;2.20;0.65;;;23.30;81.80;;;;;;5027017;28;20025;-90
2020/12/21 06:38:52;;;;;;;2.65;1.00;;;23.30;82.40;;;;;;5026772;28;20085;-90
2020/12/21 06:41:24;;;;;;;7.10;4.43;;;23.30;81.60;;;;;;5026782;28;20022;-90
2020/12/21 06:43:57;;;;;;;7.73;5.63;;;23.30;81.70;;;;;;5026784;28;20018;-91
2020/12/21 06:46:25;;;;;;;6.50;4.57;;;23.40;81.30;;;;;;5026568;28;20033;-91
2020/12/21 06:49:21;;;;;;;7.03;5.38;;;23.40;81.30;;;;;;5026457;28;20089;-90
2020/12/21 06:51:48;;;;;;;18.00;11.65;;;23.40;81.70;;;;;;5014349;28;20315;-90
2020/12/21 06:54:18;;;;;;;43.42;29.63;;;23.40;81.50;;;;;;5026624;28;20026;-90
2020/12/21 06:57:00;;;;;;;59.47;38.55;;;23.40;82.00;;;;;;5026645;28;20109;-90
2020/12/21 06:59:28;;;;;;;28.58;19.92;;;23.30;82.30;;;;;;5026395;28;20030;-91
2020/12/21 07:01:56;;;;;;;8.45;6.25;;;23.30;82.60;;;;;;5026509;28;20049;-91
2020/12/21 07:04:28;;;;;;;4.28;2.53;;;23.20;82.10;;;;;;5026336;28;20336;-91
2020/12/21 07:06:55;;;;;;;4.32;1.60;;;23.20;82.40;;;;;;5026188;28;20037;-92
2020/12/21 07:09:37;;;;;;;4.07;1.45;;;23.20;82.60;;;;;;5026541;28;20029;-90
2020/12/21 07:12:06;;;;;;;2.40;0.90;;;23.20;82.80;;;;;;5026263;28;20040;-91
2020/12/21 07:14:36;;;;;;;1.75;0.70;;;23.20;82.10;;;;;;5026309;28;20262;-91
2020/12/21 07:17:08;;;;;;;1.50;0.82;;;23.20;81.90;;;;;;5026597;28;20022;-91
2020/12/21 07:19:53;;;;;;;1.58;1.20;;;23.20;82.10;;;;;;5026247;28;20026;-91
2020/12/21 07:22:20;;;;;;;2.75;2.08;;;23.20;82.30;;;;;;5026250;28;20022;-91
2020/12/21 07:24:47;;;;;;;3.17;2.05;;;23.20;82.10;;;;;;5025244;28;20033;-91
2020/12/21 07:27:16;;;;;;;2.33;1.80;;;23.20;82.40;;;;;;5026359;28;20096;-90
2020/12/21 07:29:43;;;;;;;2.08;1.77;;;23.20;82.00;;;;;;5026601;28;20026;-91
2020/12/21 07:32:11;;;;;;;2.50;1.73;;;23.20;81.60;;;;;;5026126;28;20014;-90
2020/12/21 07:34:38;;;;;;;2.50;2.20;;;23.30;81.70;;;;;;5025561;28;20049;-91
2020/12/21 07:37:11;;;;;;;2.00;1.48;;;23.30;81.30;;;;;;5025418;28;20371;-91
2020/12/21 07:39:38;;;;;;;2.13;1.60;;;23.30;80.70;;;;;;5025760;28;20036;-92
2020/12/21 07:42:35;;;;;;;1.75;1.38;;;23.30;80.90;;;;;;5025565;28;20017;-91
2020/12/21 07:45:03;;;;;;;1.55;0.90;;;23.30;80.10;;;;;;5025056;28;20076;-90
2020/12/21 07:47:33;;;;;;;1.25;0.93;;;23.30;80.40;;;;;;5025855;28;20034;-89
2020/12/21 07:50:00;;;;;;;1.08;0.90;;;23.30;80.80;;;;;;5026167;28;20018;-91
2020/12/21 07:52:28;;;;;;;1.50;0.70;;;23.20;80.50;;;;;;5025397;28;20105;-90
2020/12/21 07:54:59;;;;;;;2.33;0.80;;;23.30;79.80;;;;;;5025360;28;20014;-90
2020/12/21 07:57:30;;;;;;;1.30;0.80;;;23.30;79.50;;;;;;5025505;28;20037;-90
2020/12/21 07:59:58;;;;;;;1.52;0.75;;;23.30;79.30;;;;;;5024833;28;20021;-90
2020/12/21 08:02:28;;;;;;;1.92;0.75;;;23.30;79.40;;;;;;5008947;28;20033;-90
2020/12/21 08:05:30;;;;;;;1.45;0.70;;;23.30;79.80;;;;;;5008846;28;20310;-91
2020/12/21 08:08:10;;;;;;;1.20;0.70;;;23.30;80.10;;;;;;5005472;28;20069;-91
2020/12/21 08:10:49;;;;;;;0.55;0.52;;;23.20;79.80;;;;;;5026360;28;20297;-92
2020/12/21 08:13:17;;;;;;;1.20;0.65;;;23.20;79.80;;;;;;5008711;28;20094;-91
2020/12/21 08:15:50;;;;;;;1.98;0.88;;;23.20;79.80;;;;;;5008817;28;20282;-90
2020/12/21 08:18:17;;;;;;;1.63;0.77;;;23.10;79.30;;;;;;5009051;28;20049;-91
2020/12/21 08:20:56;;;;;;;1.02;0.60;;;23.10;79.50;;;;;;5008701;28;20331;-91
2020/12/21 08:23:24;;;;;;;2.55;0.55;;;23.10;79.30;;;;;;5008543;28;20170;-91
2020/12/21 08:25:51;;;;;;;1.58;0.80;;;23.10;78.50;;;;;;5008858;28;20029;-90
2020/12/21 08:28:28;;;;;;;1.15;0.63;;;23.10;79.00;;;;;;5009044;28;20037;-91
2020/12/21 08:31:44;;;;;;;1.00;0.55;;;23.10;78.80;;;;;;5026211;28;20037;-92
2020/12/21 08:34:24;;;;;;;0.70;0.60;;;23.00;78.70;;;;;;5002760;28;20321;-91
2020/12/21 08:36:50;;;;;;;1.17;0.52;;;23.00;79.30;;;;;;5008602;28;20229;-91
2020/12/21 08:39:29;;;;;;;1.02;0.70;;;23.00;79.30;;;;;;5025698;28;20056;-92
2020/12/21 08:42:00;;;;;;;2.55;0.65;;;23.00;79.80;;;;;;5008106;28;20017;-92
2020/12/21 08:44:36;;;;;;;0.88;0.50;;;23.00;79.40;;;;;;5008353;28;20029;-91
2020/12/21 08:47:03;;;;;;;1.25;0.77;;;23.00;79.00;;;;;;5025748;28;20093;-92
2020/12/21 08:50:01;;;;;;;1.42;0.63;;;23.00;79.20;;;;;;5008508;28;20025;-91
2020/12/21 08:52:30;;;;;;;2.03;0.65;;;23.00;79.20;;;;;;5007331;28;20022;-91
2020/12/21 08:54:57;;;;;;;0.63;0.55;;;23.00;79.00;;;;;;5007434;28;20254;-91
2020/12/21 08:57:36;;;;;;;1.15;0.60;;;23.00;78.60;;;;;;5007551;28;20214;-90
2020/12/21 09:00:05;;;;;;;1.10;0.80;;;23.00;78.30;;;;;;5008045;28;20087;-90
2020/12/21 09:02:32;;;;;;;3.05;0.70;;;23.00;78.50;;;;;;5007288;28;20100;-91
2020/12/21 09:05:05;;;;;;;1.63;0.57;;;23.00;78.50;;;;;;5007628;28;20274;-91
2020/12/21 09:07:33;;;;;;;1.85;0.65;;;23.00;78.60;;;;;;5007595;28;20040;-91
2020/12/21 09:10:00;;;;;;;1.80;0.60;;;23.00;78.20;;;;;;5007287;28;20349;-91
2020/12/21 09:12:27;;;;;;;1.63;0.70;;;23.00;78.40;;;;;;5007879;28;20101;-92
2020/12/21 09:14:54;;;;;;;0.77;0.50;;;23.00;78.70;;;;;;5007386;28;20064;-91
2020/12/21 09:17:20;;;;;;;1.30;0.55;;;22.90;79.10;;;;;;5008131;28;20032;-91
2020/12/21 09:19:49;;;;;;;0.73;0.55;;;22.90;78.80;;;;;;5007658;28;20053;-91
2020/12/21 09:22:16;;;;;;;2.10;0.75;;;22.90;79.30;;;;;;5008080;28;20226;-91
2020/12/21 09:25:19;;;;;;;2.47;0.60;;;22.90;79.30;;;;;;5007993;28;20018;-91
2020/12/21 09:28:08;;;;;;;0.95;0.60;;;22.90;79.60;;;;;;5008535;28;20034;-92
2020/12/21 09:30:42;;;;;;;0.60;0.60;;;22.80;79.60;;;;;;5001949;28;20052;-89
2020/12/21 09:33:08;;;;;;;1.10;0.43;;;22.80;79.50;;;;;;5009094;28;20060;-91
2020/12/21 09:38:25;;;;;;;1.08;0.55;;;22.80;79.30;;;;;;5014361;28;20026;-90
2020/12/21 09:40:55;;;;;;;1.23;0.30;;;22.80;79.40;;;;;;5007702;28;20168;-90
2020/12/21 09:43:21;;;;;;;2.40;0.70;;;22.90;79.10;;;;;;5009210;28;20026;-91
2020/12/21 09:46:31;;;;;;;1.63;0.68;;;22.90;78.90;;;;;;5018060;28;20029;-93
2020/12/21 09:49:18;;;;;;;2.33;0.60;;;22.80;79.10;;;;;;5021728;28;20054;-92
2020/12/21 09:51:54;;;;;;;2.00;0.80;;;22.80;79.50;;;;;;5022501;28;20037;-89
2020/12/21 09:54:22;;;;;;;2.08;0.57;;;22.80;79.60;;;;;;5024720;28;20034;-89
2020/12/21 10:00:28;;;;;;;1.13;0.60;;;22.80;80.10;;;;;;4999757;28;20101;-89
2020/12/21 10:02:55;;;;;;;2.38;0.88;;;22.80;81.00;;;;;;5014674;28;20030;-91
2020/12/21 10:05:24;;;;;;;1.08;0.77;;;22.80;80.30;;;;;;5011470;28;20028;-91
2020/12/21 10:07:53;;;;;;;2.70;1.70;;;22.80;80.70;;;;;;5011137;28;20026;-91
2020/12/21 10:10:20;;;;;;;1.92;0.70;;;22.70;80.80;;;;;;5029608;28;20053;-91
2020/12/21 10:12:55;;;;;;;2.67;0.75;;;22.70;81.30;;;;;;5027898;28;20355;-92
2020/12/21 10:15:29;;;;;;;1.52;0.77;;;22.70;81.90;;;;;;5010203;28;20086;-91
2020/12/21 10:17:56;;;;;;;1.13;0.70;;;22.70;82.00;;;;;;5014856;28;20131;-90
2020/12/21 10:20:32;;;;;;;1.35;0.80;;;22.60;82.70;;;;;;5027021;28;20096;-90
2020/12/21 10:23:01;;;;;;;1.92;0.80;;;22.60;82.60;;;;;;5028196;28;20030;-92
2020/12/21 10:26:24;;;;;;;;;;;;;;;;;;;;;
2020/12/21 10:28:53;;;;;;;1.67;1.00;;;22.50;83.40;;;;;;5028990;28;20041;-91
2020/12/21 10:38:21;;;;;;;1.73;1.10;;;22.50;83.20;;;;;;4978099;28;20182;-92
2020/12/21 10:41:05;;;;;;;4.03;0.95;;;22.60;82.90;;;;;;4970513;28;20068;-91
2020/12/21 10:43:32;;;;;;;4.20;1.42;;;22.60;82.40;;;;;;4971017;28;20046;-91
2020/12/21 10:45:59;;;;;;;2.85;1.27;;;22.70;82.60;;;;;;5017413;28;20072;-90
2020/12/21 10:48:47;;;;;;;2.03;1.00;;;22.70;82.40;;;;;;5026696;28;20033;-92
2020/12/21 10:51:13;;;;;;;4.68;1.40;;;22.70;82.10;;;;;;5027080;28;20151;-92
2020/12/21 10:53:40;;;;;;;2.90;0.98;;;22.80;82.10;;;;;;5028418;28;20018;-90
2020/12/21 10:56:13;;;;;;;2.22;1.10;;;22.80;82.10;;;;;;5027865;28;20214;-89
2020/12/21 10:58:43;;;;;;;3.75;1.08;;;22.80;82.00;;;;;;5025745;28;20406;-90
2020/12/21 11:01:23;;;;;;;;;;;;;;;;;;;;;
2020/12/21 11:04:01;;;;;;;2.17;1.48;;;22.90;81.20;;;;;;5029880;28;20029;-91
2020/12/21 11:06:28;;;;;;;1.10;0.80;;;22.90;80.10;;;;;;5027064;28;20026;-90
2020/12/21 11:08:54;;;;;;;2.67;0.90;;;22.90;79.90;;;;;;5027536;28;20210;-89
2020/12/21 11:11:45;;;;;;;2.60;1.17;;;22.90;79.80;;;;;;5029533;28;20026;-92
2020/12/21 11:14:12;;;;;;;2.63;1.15;;;23.00;79.70;;;;;;5025915;28;20018;-89
2020/12/21 11:16:51;;;;;;;4.65;1.10;;;23.20;79.70;;;;;;5018871;28;20036;-90
2020/12/21 11:19:19;;;;;;;2.67;0.93;;;23.20;79.50;;;;;;5036457;28;20046;-91
2020/12/21 11:21:51;;;;;;;1.40;1.10;;;23.30;79.10;;;;;;5017246;28;20046;-90
2020/12/21 11:24:27;;;;;;;1.65;1.10;;;23.30;78.90;;;;;;5030550;28;20037;-90
2020/12/21 11:26:54;;;;;;;2.58;1.02;;;23.40;78.70;;;;;;5027950;28;20029;-91
2020/12/21 11:29:21;;;;;;;3.40;1.20;;;23.40;78.20;;;;;;5030227;28;20025;-91
2020/12/21 11:31:48;;;;;;;2.78;1.10;;;23.50;78.90;;;;;;5030098;28;20076;-90
2020/12/21 11:34:14;;;;;;;2.42;1.10;;;23.60;78.70;;;;;;5026778;28;20018;-90
2020/12/21 11:36:45;;;;;;;1.80;1.00;;;23.60;78.40;;;;;;5028351;28;20059;-91
2020/12/21 11:39:15;;;;;;;3.78;1.35;;;23.70;78.10;;;;;;5027822;28;20022;-91
2020/12/21 11:41:42;;;;;;;4.03;1.30;;;23.80;78.10;;;;;;5028094;28;20025;-91
2020/12/21 11:44:11;;;;;;;3.25;1.65;;;23.80;78.50;;;;;;5025937;28;20324;-91
2020/12/21 11:46:42;;;;;;;2.15;1.10;;;23.80;78.90;;;;;;5026796;28;20022;-91
2020/12/21 11:49:10;;;;;;;3.30;1.80;;;23.80;79.20;;;;;;5027909;28;20022;-91
2020/12/21 11:51:43;;;;;;;5.85;4.32;;;23.90;79.80;;;;;;5010596;28;20297;-91
2020/12/21 11:54:09;;;;;;;14.02;6.10;;;23.90;79.70;;;;;;5026679;28;20072;-91
2020/12/21 11:56:37;;;;;;;4.10;2.33;;;23.90;80.00;;;;;;5027460;28;20293;-92
2020/12/21 11:59:16;;;;;;;5.03;1.90;;;23.90;79.90;;;;;;5027821;28;20187;-90
2020/12/21 12:02:06;;;;;;;2.60;1.77;;;23.90;79.80;;;;;;5027547;28;20041;-90
2020/12/21 12:04:42;;;;;;;7.20;2.00;;;24.00;80.20;;;;;;5029498;28;20315;-91
2020/12/21 12:07:38;;;;;;;6.80;2.38;;;24.00;79.70;;;;;;5025301;28;20033;-92
2020/12/21 12:10:07;;;;;;;4.15;2.67;;;24.10;79.40;;;;;;5007267;28;20194;-91
2020/12/21 12:12:35;;;;;;;5.50;1.85;;;24.20;79.10;;;;;;5025669;28;20140;-92
2020/12/21 12:15:01;;;;;;;4.43;2.35;;;24.30;78.60;;;;;;5025517;28;20160;-91
2020/12/21 12:17:30;;;;;;;42.45;13.75;;;24.50;78.10;;;;;;5026315;28;20346;-90
2020/12/21 12:19:57;;;;;;;20.83;6.78;;;24.80;78.40;;;;;;5028213;28;20033;-91
2020/12/21 12:22:32;;;;;;;15.18;6.15;;;25.10;77.90;;;;;;5027725;28;20025;-92
2020/12/21 12:28:39;;;;;;;7.93;6.25;;;25.60;72.90;;;;;;5029838;28;20089;-92
2020/12/21 12:33:32;;;;;;;2.78;1.75;;;26.10;71.80;;;;;;5027049;28;20042;-93
2020/12/21 12:36:46;;;;;;;;;;;;;;;;;;;;;
2020/12/21 12:39:13;;;;;;;3.20;1.80;;;26.00;72.80;;;;;;5028239;28;20061;-93
2020/12/21 12:41:42;;;;;;;2.72;1.52;;;26.30;71.90;;;;;;5025703;28;20076;-92
2020/12/21 12:44:12;;;;;;;5.97;2.33;;;26.50;69.70;;;;;;5025164;28;20101;-93
2020/12/21 12:46:39;;;;;;;1.75;1.08;;;26.90;71.20;;;;;;5025396;28;20065;-90
2020/12/21 12:49:11;;;;;;;3.30;1.55;;;27.10;70.10;;;;;;5025586;28;20222;-91
2020/12/21 12:51:56;;;;;;;2.27;1.13;;;27.40;69.60;;;;;;5029878;28;20064;-92
2020/12/21 12:54:25;;;;;;;2.08;0.75;;;27.50;70.30;;;;;;5033794;28;20050;-89
2020/12/21 12:56:52;;;;;;;1.88;1.20;;;27.70;66.20;;;;;;5026042;28;20040;-90
2020/12/21 13:01:57;;;;;;;2.28;1.00;;;28.00;66.80;;;;;;5097330;23;20220;-90
2020/12/21 13:04:33;;;;;;;2.22;1.27;;;28.20;67.70;;;;;;5028342;28;20049;-92
2020/12/21 13:07:18;;;;;;;3.13;1.17;;;28.20;68.10;;;;;;5158129;23;20044;-91
2020/12/21 13:10:09;;;;;;;6.97;3.83;;;28.40;67.60;;;;;;5289201;23;20045;-89
2020/12/21 13:12:36;;;;;;;3.45;1.00;;;28.60;68.40;;;;;;5017981;28;20040;-91
2020/12/21 13:15:03;;;;;;;6.15;0.93;;;28.70;67.00;;;;;;5026913;28;20064;-91
2020/12/21 13:17:31;;;;;;;1.75;0.80;;;28.80;67.50;;;;;;5044978;28;20325;-90
2020/12/21 13:20:10;;;;;;;2.97;0.95;;;29.00;66.10;;;;;;5028572;28;20093;-89
2020/12/21 13:22:37;;;;;;;4.20;0.77;;;29.00;66.10;;;;;;5045023;28;20088;-90
2020/12/21 13:25:06;;;;;;;3.03;0.90;;;29.20;65.50;;;;;;5028103;28;20025;-90
2020/12/21 13:27:45;;;;;;;5.63;2.63;;;29.30;65.70;;;;;;5028924;28;20040;-89
2020/12/21 13:30:37;;;;;;;7.22;5.97;;;29.60;65.10;;;;;;5044309;28;20040;-90
2020/12/21 13:33:09;;;;;;;2.63;1.00;;;29.60;63.90;;;;;;5015645;28;20018;-90
2020/12/21 13:36:09;;;;;;;1.10;0.63;;;29.90;65.80;;;;;;5032116;28;20017;-93
2020/12/21 13:38:44;;;;;;;2.38;0.82;;;30.00;64.70;;;;;;4992278;28;20040;-93
2020/12/21 13:41:41;;;;;;;;;;;;;;;;;;;;;
2020/12/21 13:44:06;;;;;;;1.63;0.57;;;30.30;64.20;;;;;;5002789;28;20380;-92
2020/12/21 13:46:55;;;;;;;3.30;1.20;;;30.40;63.00;;;;;;4930136;29;20044;-95
2020/12/21 13:49:22;;;;;;;3.25;1.10;;;30.40;63.20;;;;;;4911255;29;20024;-92
2020/12/21 13:52:02;;;;;;;2.83;1.63;;;30.20;63.30;;;;;;4911631;29;20036;-96
2020/12/21 13:54:30;;;;;;;3.38;0.82;;;30.20;63.80;;;;;;4911186;29;20150;-94
2020/12/21 13:56:57;;;;;;;4.25;0.80;;;30.10;63.90;;;;;;4912853;29;20024;-93
2020/12/21 13:59:23;;;;;;;3.42;0.80;;;30.40;62.80;;;;;;4911954;29;20039;-92
2020/12/21 14:01:50;;;;;;;2.45;0.70;;;30.70;63.10;;;;;;4912244;29;20024;-93
2020/12/21 14:04:18;;;;;;;1.30;0.77;;;30.80;61.70;;;;;;4912294;29;20321;-92
2020/12/21 14:06:45;;;;;;;0.63;0.50;;;31.00;61.20;;;;;;4918281;29;20032;-92
2020/12/21 14:09:14;;;;;;;1.85;0.50;;;31.00;60.30;;;;;;4927577;29;20039;-93
2020/12/21 14:12:08;;;;;;;1.70;0.45;;;31.10;59.90;;;;;;4966816;28;20054;-95
2020/12/21 14:14:35;;;;;;;0.88;0.50;;;31.00;60.70;;;;;;4966714;29;20030;-94
2020/12/21 14:17:39;;;;;;;1.55;0.65;;;31.00;60.70;;;;;;4967116;29;20035;-96
2020/12/21 14:20:06;;;;;;;2.70;0.70;;;31.00;61.60;;;;;;4877796;29;20105;-93
2020/12/21 14:22:39;;;;;;;3.17;0.70;;;31.40;61.40;;;;;;4935819;29;20300;-94
2020/12/21 14:32:15;;;;;;;2.97;0.80;;;31.20;59.10;;;;;;4912050;29;20039;-94
2020/12/21 14:38:43;;;;;;;3.80;0.80;;;31.50;59.50;;;;;;4894678;29;20025;-94
2020/12/21 14:41:12;;;;;;;1.73;0.70;;;31.50;57.10;;;;;;4887822;29;20112;-96
2020/12/21 14:43:45;;;;;;;1.85;0.70;;;31.60;57.90;;;;;;4879686;29;20132;-92